Home > Products > Valid Products > TAF

000
FTUS44 KBRO 191800 AAA
TAFBRO
TAF AMD
KBRO 191807Z 1918/2018 30006KT 6SM HZ OVC010
     FM192200 33012KT P6SM OVC025
     FM200600 34008KT P6SM OVC015
     FM201200 35006KT P6SM OVC025=



000
FTUS44 KBRO 191700
TAFHRL
TAF
KHRL 191731Z 1918/2018 32008KT P6SM BKN015 OVC040
      TEMPO 1918/1922 SCT007
     FM192200 33010KT P6SM OVC025
     FM200600 34006KT P6SM OVC012
     FM201200 34008KT P6SM OVC025=



000
FTUS44 KBRO 191700
TAFBRO
TAF
KBRO 191731Z 1918/2018 30006KT 5SM BR BKN012 OVC020
     FM192200 33012KT P6SM OVC025
     FM200600 34008KT P6SM OVC015
     FM201200 35006KT P6SM OVC025=



000
FTUS44 KBRO 191700
TAFMFE
TAF
KMFE 191731Z 1918/2018 30009KT 6SM BR VCSH SCT007 OVC018
     FM192100 35010KT P6SM SCT008 OVC025
     FM200200 36006KT P6SM OVC030
     FM200600 35008KT P6SM OVC012
     FM201200 34008KT P6SM OVC025=



000
FTUS44 KBRO 191600 AAB
TAFMFE
TAF AMD
KMFE 191609Z 1916/2012 30005KT 5SM BR OVC005
     FM191800 30009KT P6SM VCSH OVC018
     FM192100 35010KT P6SM OVC030
     FM200200 35008KT P6SM OVC019=



000
FTUS44 KBRO 191600 AAB
TAFMFE
TAF AMD
KMFE 191609Z 1916/2012 30005KT 5SM BR OVC005
     FM191800 30009KT P6SM VCSH OVC018
     FM192100 35010KT P6SM OVC030
     FM200200 35008KT P6SM OVC019=



000
FTUS44 KBRO 191600 AAC
TAFHRL
TAF AMD
KHRL 191608Z 1916/2012 00000KT 6SM BR OVC008
     FM191700 27009KT P6SM OVC010
     FM191900 29010KT P6SM OVC020
     FM192100 34012KT P6SM OVC030
     FM200300 01010G16KT P6SM OVC019=



000
FTUS44 KBRO 191600 AAC
TAFHRL
TAF AMD
KHRL 191608Z 1916/2012 00000KT 6SM BR OVC008
     FM191700 27009KT P6SM OVC010
     FM191900 29010KT P6SM OVC020
     FM192100 34012KT P6SM OVC030
     FM200300 01010G16KT P6SM OVC019=



000
FTUS44 KBRO 191600 AAA
TAFBRO
TAF AMD
KBRO 191601Z 1916/2012 16005KT 5SM BR SCT012 OVC060
     FM192100 26010KT P6SM OVC050
     FM200000 34007KT P6SM OVC015=



000
FTUS44 KBRO 191300 AAB
TAFHRL
TAF AMD
KHRL 191336Z 1914/2012 00000KT 6SM BR BKN008 OVC080
      TEMPO 1914/1916 BR SCT004
     FM191700 27009KT P6SM OVC010
     FM191900 29010KT P6SM OVC020
     FM192100 34012KT P6SM OVC030
     FM200300 01010G16KT P6SM OVC019=



000
FTUS44 KBRO 191200 AAA
TAFMFE
TAF AMD
KMFE 191249Z 1913/2012 00000KT P6SM BKN010 OVC014
     FM191500 30005KT P6SM VCSH OVC010
     FM191700 30009KT P6SM VCSH OVC018
     FM192100 35010KT P6SM OVC030
     FM200200 35008KT P6SM OVC019=



000
FTUS44 KBRO 191200 AAA
TAFHRL
TAF AMD
KHRL 191248Z 1913/2012 00000KT P6SM SCT006 OVC080
     FM191700 27009KT P6SM OVC010
     FM191900 29010KT P6SM OVC020
     FM192100 34012KT P6SM OVC030
     FM200300 01010G16KT P6SM OVC019=



000
FTUS44 KBRO 191100
TAFHRL
TAF
KHRL 191133Z 1912/2012 00000KT 6SM BR OVC006
     FM191700 27009KT 6SM BR OVC010
     FM191900 29010KT 6SM BR OVC020
     FM192100 34012KT P6SM OVC030
     FM200300 01010G16KT P6SM OVC019=



000
FTUS44 KBRO 191100
TAFMFE
TAF
KMFE 191133Z 1912/2012 31004KT 5SM BR SCT004 OVC009
     FM191500 30005KT 5SM BR VCSH OVC009
     FM191700 30009KT P6SM VCSH OVC018
     FM192100 35010KT P6SM OVC030
     FM200200 35008KT P6SM OVC019=



000
FTUS44 KBRO 191100
TAFBRO
TAF
KBRO 191133Z 1912/2012 16005KT 4SM BR FEW070
     FM191500 21007KT P6SM OVC050
     FM192100 26010KT P6SM OVC050
     FM200000 34007KT P6SM OVC015=



000
FTUS44 KBRO 191100 AAA
TAFHRL
TAF AMD
KHRL 191129Z 1911/2006 00000KT 6SM BR OVC006
     FM192100 31010KT P6SM OVC035
     FM200000 36012KT P6SM OVC050
     FM200300 36010KT P6SM OVC025=



000
FTUS44 KBRO 191100 AAA
TAFBRO
TAF AMD
KBRO 191129Z 1911/2006 16005KT 4SM BR FEW070
     FM192100 24010KT P6SM VCSH OVC035
     FM200000 35012KT P6SM OVC050
     FM200200 36007KT P6SM OVC025=



000
FTUS44 KBRO 191100 AAA
TAFMFE
TAF AMD
KMFE 191129Z 1911/2006 31004KT 5SM BR SCT004 OVC009
     FM191500 19008KT P6SM VCSH OVC018
     FM192100 34012KT P6SM OVC030
     FM200200 36010KT P6SM OVC025=



000
FTUS44 KBRO 190800 AAA
TAFHRL
TAF AMD
KHRL 190807Z 1908/2006 27003KT 5SM BR FEW005 BKN019 OVC070
     FM192100 31010KT P6SM VCSH OVC035
     FM200000 36012KT P6SM OVC050
     FM200300 36010KT P6SM OVC025=



000
FTUS44 KBRO 190800 AAC
TAFMFE
TAF AMD
KMFE 190807Z 1908/2006 00000KT 5SM BR BKN004 BKN016 OVC050
     FM191200 20003KT 2SM BR OVC003
     FM191500 19008KT P6SM VCSH OVC018
     FM192100 34012KT P6SM OVC030
     FM200200 36010KT P6SM OVC025=



000
FTUS44 KBRO 190800 AAA
TAFBRO
TAF AMD
KBRO 190801Z 1908/2006 20005KT P6SM BKN020
     FM192100 24010KT P6SM VCSH OVC035
     FM200000 35012KT P6SM OVC050
     FM200200 36007KT P6SM OVC025=



000
FTUS44 KBRO 190600 AAB
TAFMFE
TAF AMD
KMFE 190613Z 1906/2006 00000KT 6SM BR SCT003 SCT014 OVC045
      TEMPO 1906/1910 BKN003
     FM191200 20003KT 2SM BR OVC003
     FM191500 19008KT P6SM VCSH OVC018
     FM192100 34012KT P6SM OVC030
     FM200200 36010KT P6SM OVC025=



000
FTUS44 KBRO 190600 AAA
TAFMFE
TAF AMD
KMFE 190611Z 1906/2006 00000KT 6SM BR SCT003 SCT014 OVC045
     FM191200 20003KT 2SM BR OVC003
     FM191500 19008KT P6SM VCSH OVC018
     FM192100 34012KT P6SM OVC030
     FM200200 36010KT P6SM OVC025=



000
FTUS44 KBRO 190500
TAFMFE
TAF
KMFE 190520Z 1906/2006 27003KT P6SM VCSH BKN004
     FM191200 20003KT 2SM BR OVC003
     FM191500 19008KT P6SM VCSH OVC018
     FM192100 34012KT P6SM OVC030
     FM200200 36010KT P6SM OVC025=



000
FTUS44 KBRO 190500
TAFHRL
TAF
KHRL 190520Z 1906/2006 15005KT P6SM OVC060
     FM190900 16005KT P6SM VCSH OVC025
     FM192100 31010KT P6SM VCSH OVC035
     FM200000 36012KT P6SM OVC050
     FM200300 36010KT P6SM OVC025=



000
FTUS44 KBRO 190500
TAFBRO
TAF
KBRO 190520Z 1906/2006 14005KT P6SM OVC050
     FM190900 16006KT P6SM VCSH OVC025
     FM192100 24010KT P6SM VCSH OVC035
     FM200000 35012KT P6SM OVC050
     FM200200 36007KT P6SM OVC025=



000
FTUS44 KBRO 190300 AAB
TAFHRL
TAF AMD
KHRL 190322Z 1903/1924 12004KT P6SM OVC050
     FM190600 18005KT 4SM BR OVC015
     FM191000 16008KT 3SM -RA BR BKN008
     FM191500 19008KT 6SM BR VCSH OVC018
     FM191800 25010KT P6SM VCSH OVC025
     FM192100 31012KT P6SM OVC050=



000
FTUS44 KBRO 190100 AAA
TAFHRL
TAF AMD
KHRL 190132Z 1902/1924 VRB04KT P6SM BKN035 OVC060
      TEMPO 1902/1904 2SM -RA BR BKN025
     FM190400 16008KT 5SM BR BKN008
     FM191500 19008KT 6SM BR VCSH OVC018
     FM191800 25010KT P6SM VCSH OVC025
     FM192100 31012KT P6SM OVC050=



000
FTUS44 KBRO 190100 AAA
TAFHRL
TAF AMD
KHRL 190132Z 1902/1924 VRB04KT P6SM BKN035 OVC060
      TEMPO 1902/1904 2SM -RA BR BKN025
     FM190400 16008KT 5SM BR BKN008
     FM191500 19008KT 6SM BR VCSH OVC018
     FM191800 25010KT P6SM VCSH OVC025
     FM192100 31012KT P6SM OVC050=



000
FTUS44 KBRO 190100 AAA
TAFBRO
TAF AMD
KBRO 190131Z 1902/1924 14007KT P6SM VCSH SCT035 OVC070
     FM190400 15006KT 5SM BR BKN015
     FM191500 19009KT 6SM BR VCSH OVC018
     FM191800 23009KT P6SM VCSH OVC025
     FM192100 26012KT P6SM OVC050=



000
FTUS44 KBRO 190100 AAA
TAFBRO
TAF AMD
KBRO 190131Z 1902/1924 14007KT P6SM VCSH SCT035 OVC070
     FM190400 15006KT 5SM BR BKN015
     FM191500 19009KT 6SM BR VCSH OVC018
     FM191800 23009KT P6SM VCSH OVC025
     FM192100 26012KT P6SM OVC050=



000
FTUS44 KBRO 182300 RRA
TAFMFE
TAF
KMFE 182352Z 1900/1924 27005KT 5SM -RA BR OVC015
      TEMPO 1900/1904 2SM -RA BR BKN008
     FM190400 16006KT 5SM BR VCSH BKN008
     FM191500 19008KT 6SM BR VCSH OVC018
     FM191800 28009KT P6SM VCSH OVC025
     FM192100 33012KT P6SM OVC050=



000
FTUS44 KBRO 182300 RRA
TAFHRL
TAF
KHRL 182352Z 1900/1924 27005KT 5SM -RA BR SCT015 OVC025
      TEMPO 1900/1904 2SM -RA BR BKN009
     FM190400 16008KT 5SM BR BKN008
     FM191500 19008KT 6SM BR VCSH OVC018
     FM191800 25010KT P6SM VCSH OVC025
     FM192100 31012KT P6SM OVC050=



000
FTUS44 KBRO 182300 RRA
TAFBRO
TAF
KBRO 182352Z 1900/1924 16010KT P6SM VCSH FEW020 OVC060
      TEMPO 1901/1904 2SM -RA BR BKN009
     FM190400 15006KT 5SM BR BKN008
     FM191500 19009KT 6SM BR VCSH OVC018
     FM191800 23009KT P6SM VCSH OVC025
     FM192100 26012KT P6SM OVC050=



000
FTUS44 KBRO 182000 AAB
TAFMFE
TAF AMD
KMFE 182052Z 1821/1918 26006KT 6SM BR VCSH OVC060
      TEMPO 1821/1824 5SM -RA
     FM190300 16006KT 6SM BR BKN025
     FM191000 16006KT 5SM BR VCSH BKN008
     FM191500 19008KT 6SM BR VCSH OVC018=



000
FTUS44 KBRO 181900 AAB
TAFBRO
TAF AMD
KBRO 181950Z 1820/1918 17012KT P6SM SCT025 BKN030 OVC050
      TEMPO 1820/1822 -RA
     FM182200 16006KT P6SM VCSH BKN035
     FM190400 15006KT 5SM BR BKN008
     FM190600 16008KT 5SM BR VCSH OVC010
     FM191500 19009KT 6SM BR VCSH OVC018=



000
FTUS44 KBRO 181900 AAA
TAFMFE
TAF AMD
KMFE 181928Z 1819/1918 26006KT 6SM HZ OVC050
      TEMPO 1820/1823 6SM -RA
     FM190300 16006KT 6SM BR BKN025
     FM191000 16006KT 5SM BR VCSH BKN008
     FM191500 19008KT 6SM BR VCSH OVC018=



000
FTUS44 KBRO 181900 AAA
TAFBRO
TAF AMD
KBRO 181923Z 1819/1918 17012KT P6SM BKN025 OVC050
     FM182200 16006KT P6SM VCSH BKN035
     FM190400 15006KT 5SM BR BKN008
     FM190600 16008KT 5SM BR VCSH OVC010
     FM191500 19009KT 6SM BR VCSH OVC018=



000
FTUS44 KBRO 181700
TAFHRL
TAF
KHRL 181734Z 1818/1918 18008KT P6SM VCSH FEW020 BKN050
     FM190400 16008KT 6SM BR BKN008
     FM191000 15009KT 5SM BR VCSH OVC010
     FM191500 19008KT 6SM BR VCSH OVC018=



000
FTUS44 KBRO 181700
TAFMFE
TAF
KMFE 181734Z 1818/1918 26006KT 6SM BR VCSH SCT012 BKN030 OVC050
      TEMPO 1818/1821 6SM -RA BKN015
     FM190300 16006KT 6SM BR BKN025
     FM191000 16006KT 5SM BR VCSH BKN008
     FM191500 19008KT 6SM BR VCSH OVC018=



000
FTUS44 KBRO 181700
TAFBRO
TAF
KBRO 181734Z 1818/1918 17012KT P6SM BKN015 BKN020
     FM182200 16006KT P6SM VCSH BKN035
     FM190400 15006KT 5SM BR BKN008
     FM190600 16008KT 5SM BR VCSH OVC010
     FM191500 19009KT 6SM BR VCSH OVC018=



000
FTUS44 KBRO 181600 AAB
TAFMFE
TAF AMD
KMFE 181639Z 1817/1912 26006KT 6SM BR BKN015
      TEMPO 1817/1820 BKN012
     FM182000 17012KT P6SM VCSH BKN040
     FM182200 17010KT P6SM OVC030
     FM190200 15006KT P6SM OVC025=



000
FTUS44 KBRO 181600 AAA
TAFBRO
TAF AMD
KBRO 181639Z 1817/1912 16006KT P6SM BKN015 BKN020
     FM182000 16014KT P6SM VCSH BKN040
     FM190000 14009KT P6SM OVC035
     FM190300 14008KT P6SM OVC025=



000
FTUS44 KBRO 181400 AAA
TAFMFE
TAF AMD
KMFE 181416Z 1814/1912 27006KT P6SM BKN025
      TEMPO 1814/1816 OVC015
     FM181600 17012KT P6SM VCSH BKN040
     FM182200 17010KT P6SM OVC030
     FM190200 15006KT P6SM OVC025=



000
FTUS44 KBRO 181100
TAFMFE
TAF
KMFE 181124Z 1812/1912 15008KT P6SM BKN040
      TEMPO 1812/1816 BKN020
     FM181600 17012KT P6SM VCSH BKN040
     FM182200 17010KT P6SM OVC030
     FM190200 15006KT P6SM OVC025=



000
FTUS44 KBRO 181100
TAFHRL
TAF
KHRL 181124Z 1812/1912 15008KT P6SM BKN050
     FM181600 16014KT P6SM VCSH BKN040
     FM190000 14009KT P6SM OVC035
     FM190300 14008KT P6SM OVC025=



000
FTUS44 KBRO 181100
TAFBRO
TAF
KBRO 181124Z 1812/1912 16006KT P6SM BKN050
     FM181600 16014KT P6SM VCSH BKN040
     FM190000 14009KT P6SM OVC035
     FM190300 14008KT P6SM OVC025=



000
FTUS44 KBRO 180800 AAA
TAFBRO
TAF AMD
KBRO 180807Z 1808/1906 16006KT P6SM BKN040
      TEMPO 1810/1814 5SM BR BKN020
     FM181400 17011KT P6SM VCSH BKN020
     FM181800 18014KT P6SM VCSH OVC040
     FM190200 16007KT P6SM OVC025=



000
FTUS44 KBRO 180800 AAA
TAFHRL
TAF AMD
KHRL 180807Z 1808/1906 15008KT P6SM BKN035
      TEMPO 1810/1814 4SM BR BKN020
     FM181400 18012KT P6SM VCSH OVC020
     FM182100 17015KT P6SM VCSH OVC040
     FM190200 16007KT P6SM OVC025=



000
FTUS44 KBRO 180800 AAA
TAFBRO
TAF AMD
KBRO 180807Z 1808/1906 16006KT P6SM BKN040
      TEMPO 1810/1814 5SM BR BKN020
     FM181400 17011KT P6SM VCSH BKN020
     FM181800 18014KT P6SM VCSH OVC040
     FM190200 16007KT P6SM OVC025=



000
FTUS44 KBRO 180800 AAA
TAFHRL
TAF AMD
KHRL 180807Z 1808/1906 15008KT P6SM BKN035
      TEMPO 1810/1814 4SM BR BKN020
     FM181400 18012KT P6SM VCSH OVC020
     FM182100 17015KT P6SM VCSH OVC040
     FM190200 16007KT P6SM OVC025=



000
FTUS44 KBRO 180500
TAFMFE
TAF
KMFE 180521Z 1806/1906 15008KT P6SM BKN015
     FM181000 14005KT 4SM BR BKN007
     FM181600 18012KT P6SM VCSH OVC015
     FM182000 17010KT P6SM VCSH OVC030
     FM190200 15006KT P6SM OVC025=



000
FTUS44 KBRO 180500
TAFHRL
TAF
KHRL 180521Z 1806/1906 15008KT P6SM BKN025 OVC040
      TEMPO 1810/1814 4SM BR BKN007
     FM181400 18012KT P6SM VCSH OVC020
     FM182100 17015KT P6SM VCSH OVC040
     FM190200 16007KT P6SM OVC025=



000
FTUS44 KBRO 180500
TAFBRO
TAF
KBRO 180521Z 1806/1906 16006KT P6SM BKN025 OVC040
      TEMPO 1810/1814 5SM BR BKN009
     FM181400 17011KT P6SM VCSH BKN020
     FM181800 18014KT P6SM VCSH OVC040
     FM190200 16007KT P6SM OVC025=



000
FTUS44 KBRO 180500
TAFHRL
TAF
KHRL 180520Z 1806/1906 15008KT P6SM BKN025 OVC040
      TEMPO 1810/1814 4SM BR BKN007
     FM181400 18012KT P6SM VCSH OVC020
     FM182100 17015KT P6SM VCSH OVC040
     FM190200 16007KT P6SM OVC025=



000
FTUS44 KBRO 180500
TAFMFE
TAF
KMFE 180520Z 1806/1906 15008KT P6SM BKN015
     FM181000 14005KT 4SM BR BKN007
     FM181600 18012KT P6SM VCSH OVC015
     FM182000 17010KT P6SM VCSH OVC030
     FM190200 15006KT P6SM OVC025=



000
FTUS44 KBRO 180500
TAFBRO
TAF
KBRO 180520Z 1806/1906 16006KT P6SM BKN025 OVC040
      TEMPO 1810/1814 5SM BR BKN009
     FM181400 17011KT P6SM VCSH BKN020
     FM181800 18014KT P6SM VCSH OVC040
     FM190200 16007KT P6SM OVC025=



000
FTUS44 KBRO 180300 AAA
TAFMFE
TAF AMD
KMFE 180300Z 1803/1824 14012KT P6SM BKN022 OVC040
     FM180600 15008KT P6SM BKN015
     FM181200 14005KT 5SM BR BKN007
     FM181800 17010KT P6SM VCSH OVC025=



000
FTUS44 KBRO 180200 AAA
TAFBRO
TAF AMD
KBRO 180259Z 1803/1824 16006KT P6SM BKN022 OVC040
     FM180600 15008KT P6SM BKN015
     FM181200 14005KT 5SM BR BKN007
     FM181400 17012KT P6SM BKN020
     FM182000 16015KT P6SM VCSH BKN035=



000
FTUS44 KBRO 180200 AAA
TAFHRL
TAF AMD
KHRL 180259Z 1803/1824 15005KT P6SM BKN025 OVC035
     FM180600 15008KT P6SM BKN015
     FM181200 14005KT 5SM BR BKN007
     FM181400 18012KT P6SM OVC020
     FM182100 17015KT P6SM VCSH OVC050=



000
FTUS44 KBRO 172300 RRA
TAFMFE
TAF
KMFE 172344Z 1800/1824 14011KT P6SM SCT020 BKN250
     FM180600 15008KT P6SM BKN015
     FM181200 14005KT 5SM BR BKN007
     FM181800 17010KT P6SM VCSH OVC025=



000
FTUS44 KBRO 172300 RRA
TAFHRL
TAF
KHRL 172344Z 1800/1824 15010KT P6SM SCT020 BKN250
     FM180600 15008KT P6SM BKN015
     FM181200 14005KT 5SM BR BKN007
     FM181400 18012KT P6SM OVC020
     FM182100 17015KT P6SM VCSH OVC050=



000
FTUS44 KBRO 172300 RRA
TAFBRO
TAF
KBRO 172344Z 1800/1824 15010KT P6SM SCT020 BKN250
     FM180600 15008KT P6SM BKN015
     FM181200 14005KT 5SM BR BKN007
     FM181400 17012KT P6SM BKN020
     FM182000 16015KT P6SM VCSH BKN035=



000
FTUS44 KBRO 172000 AAA
TAFMFE
TAF AMD
KMFE 172040Z 1721/1818 15014KT P6SM BKN035
     FM180000 14010KT P6SM SCT015 BKN050
     FM180600 15008KT P6SM BKN015
     FM181200 14005KT 5SM BR BKN007=



000
FTUS44 KBRO 171700
TAFHRL
TAF
KHRL 171725Z 1718/1818 16014G22KT P6SM FEW024 SCT050 BKN250
     FM180000 16010KT P6SM SCT015 BKN050
     FM180600 15008KT P6SM BKN015
     FM181200 14005KT 5SM BR BKN007=



000
FTUS44 KBRO 171700
TAFBRO
TAF
KBRO 171725Z 1718/1818 16013G21KT P6SM BKN250
     FM180000 15010KT P6SM SCT015 BKN050
     FM180600 15008KT P6SM BKN015
     FM181200 14005KT 5SM BR BKN007=



000
FTUS44 KBRO 171700
TAFMFE
TAF
KMFE 171725Z 1718/1818 15014KT P6SM BKN024 BKN029
     FM180000 14010KT P6SM SCT015 BKN050
     FM180600 15008KT P6SM BKN015
     FM181200 14005KT 5SM BR BKN007=



000
FTUS44 KBRO 171300 AAA
TAFMFE
TAF AMD
KMFE 171343Z 1714/1812 14008KT P6SM FEW008 SCT013 OVC050
     FM171600 16015G21KT P6SM BKN040
     FM180100 15009KT P6SM BKN025=



000
FTUS44 KBRO 171200 AAA
TAFHRL
TAF AMD
KHRL 171234Z 1713/1812 14007KT P6SM OVC035
     FM171600 16016G21KT P6SM BKN040
     FM180200 15008KT P6SM BKN025=



000
FTUS44 KBRO 171200 AAA
TAFBRO
TAF AMD
KBRO 171234Z 1713/1812 15008KT P6SM OVC035
     FM171600 15016G21KT P6SM BKN040
     FM180200 15008KT P6SM BKN025=



000
FTUS44 KBRO 171100
TAFMFE
TAF
KMFE 171122Z 1712/1812 12009KT P6SM FEW006 OVC035
      TEMPO 1712/1714 BKN006
     FM171600 16015G21KT P6SM BKN040
     FM180100 15009KT P6SM BKN025=



000
FTUS44 KBRO 171100
TAFBRO
TAF
KBRO 171122Z 1712/1812 15008KT P6SM OVC035
      TEMPO 1712/1715 BKN015
     FM171600 15016G21KT P6SM BKN040
     FM180200 15008KT P6SM BKN025=



000
FTUS44 KBRO 171100
TAFHRL
TAF
KHRL 171122Z 1712/1812 13007KT P6SM OVC035
      TEMPO 1712/1715 BKN015
     FM171600 16016G21KT P6SM BKN040
     FM180200 15008KT P6SM BKN025=



000
FTUS44 KBRO 170900 AAA
TAFMFE
TAF AMD
KMFE 170957Z 1710/1806 11009KT P6SM BKN015
      TEMPO 1710/1713 BKN008
     FM171500 17013KT P6SM BKN025
     FM171800 16015G20KT P6SM BKN035
     FM180300 15008KT P6SM BKN025=



000
FTUS44 KBRO 170500
TAFHRL
TAF
KHRL 170525Z 1706/1806 09007KT P6SM OVC040
      TEMPO 1709/1713 BKN025
     FM171500 17013KT P6SM BKN025
     FM171800 16017G24KT P6SM BKN035
     FM180300 15008KT P6SM BKN025=



000
FTUS44 KBRO 170500
TAFMFE
TAF
KMFE 170525Z 1706/1806 07006KT P6SM SCT025 BKN040
      TEMPO 1708/1712 BKN025
     FM171500 17013KT P6SM BKN025
     FM171800 16015G20KT P6SM BKN035
     FM180300 15008KT P6SM BKN025=



000
FTUS44 KBRO 170500
TAFBRO
TAF
KBRO 170525Z 1706/1806 08008KT P6SM OVC035
      TEMPO 1709/1713 BKN025
     FM171500 17013KT P6SM BKN025
     FM171800 16017G24KT P6SM BKN035
     FM180300 15008KT P6SM BKN025=



000
FTUS44 KBRO 170500 AAA
TAFHRL
TAF AMD
KHRL 170504Z 1705/1724 08009KT P6SM VCSH BKN050 BKN060
     FM170600 13006KT 6SM BR OVC015
     FM170900 14006KT 4SM BR OVC007
      TEMPO 1709/1713 3SM BR OVC004
     FM171500 17009KT P6SM OVC015
     FM171800 16017KT P6SM OVC025
     FM172100 15016KT P6SM OVC040=



000
FTUS44 KBRO 170500 AAC
TAFMFE
TAF AMD
KMFE 170504Z 1705/1724 08008KT P6SM BKN040
     FM170600 07010KT P6SM OVC023
     FM170900 11007KT P6SM OVC009
     FM171200 14008KT 6SM BR OVC006
     FM171500 15010KT P6SM OVC015
     FM171800 16016KT P6SM OVC025
     FM172100 14014KT P6SM OVC040=



000
FTUS44 KBRO 170500 AAA
TAFBRO
TAF AMD
KBRO 170503Z 1705/1724 11007KT P6SM VCSH FEW027 BKN060 OVC090
     FM170600 13006KT 6SM BR OVC012
     FM170900 14006KT 4SM BR OVC007
      TEMPO 1709/1713 3SM BR OVC004
     FM171500 17009KT P6SM OVC015
     FM171800 16017KT P6SM OVC025
     FM172100 15016KT P6SM OVC040=



000
FTUS44 KBRO 170200 AAB
TAFMFE
TAF AMD
KMFE 170239Z 1703/1724 08011KT P6SM VCSH SCT023 BKN060
      TEMPO 1703/1706 BKN024
     FM170600 07010KT P6SM OVC023
     FM170900 11007KT P6SM OVC009
     FM171200 14008KT 6SM BR OVC006
     FM171500 15010KT P6SM OVC015
     FM171800 16016KT P6SM OVC025
     FM172100 14014KT P6SM OVC040=



000
FTUS44 KBRO 170200 AAB
TAFBRO
TAF AMD
KBRO 170238Z 1703/1724 08011G17KT P6SM VCSH SCT019 BKN045 OVC060
      TEMPO 1703/1706 OVC019
     FM170600 13006KT 6SM BR OVC012
     FM170900 14006KT 4SM BR OVC007
      TEMPO 1709/1713 3SM BR OVC004
     FM171500 17009KT P6SM OVC015
     FM171800 16017KT P6SM OVC025
     FM172100 15016KT P6SM OVC040=



000
FTUS44 KBRO 170200 AAA
TAFMFE
TAF AMD
KMFE 170207Z 1702/1724 08011KT P6SM VCSH SCT023 BKN060
     FM170600 07010KT P6SM OVC023
     FM170900 11007KT P6SM OVC009
     FM171200 14008KT 6SM BR OVC006
     FM171500 15010KT P6SM OVC015
     FM171800 16016KT P6SM OVC025
     FM172100 14014KT P6SM OVC040=



000
FTUS44 KBRO 170100 AAA
TAFBRO
TAF AMD
KBRO 170107Z 1701/1724 08011KT P6SM VCSH OVC016
     FM170600 13006KT 6SM BR OVC012
     FM170900 14006KT 4SM BR OVC007
      TEMPO 1709/1713 3SM BR OVC004
     FM171500 17009KT P6SM OVC015
     FM171800 16017KT P6SM OVC025
     FM172100 15016KT P6SM OVC040=



000
FTUS44 KBRO 162300
TAFBRO
TAF
KBRO 162336Z 1700/1724 08011G19KT P6SM VCSH OVC025
     FM170600 13006KT 6SM BR OVC015
     FM170900 14006KT 4SM BR OVC007
      TEMPO 1709/1713 3SM BR OVC004
     FM171500 17009KT P6SM OVC015
     FM171800 16017KT P6SM OVC025
     FM172100 15016KT P6SM OVC040=



000
FTUS44 KBRO 162300
TAFMFE
TAF
KMFE 162336Z 1700/1724 07014G23KT P6SM VCSH BKN025 BKN045 OVC070
     FM170600 07010KT P6SM OVC015
     FM170900 11007KT P6SM OVC009
     FM171200 14008KT 6SM BR OVC006
     FM171500 15010KT P6SM OVC015
     FM171800 16016KT P6SM OVC025
     FM172100 14014KT P6SM OVC040=



000
FTUS44 KBRO 162300
TAFHRL
TAF
KHRL 162336Z 1700/1724 07016KT P6SM VCSH BKN027 BKN030 OVC060
     FM170600 13006KT 6SM BR OVC015
     FM170900 14006KT 4SM BR OVC007
      TEMPO 1709/1713 3SM BR OVC004
     FM171500 17009KT P6SM OVC015
     FM171800 16017KT P6SM OVC025
     FM172100 15016KT P6SM OVC040=



000
FTUS44 KBRO 162000 AAA
TAFMFE
TAF AMD
KMFE 162044Z 1621/1718 06016G22KT P6SM SCT028 BKN080
      TEMPO 1700/1703 BKN028
     FM170300 07010KT P6SM SCT015 OVC025
     FM170600 11005KT P6SM SCT007 OVC015
     FM170900 14005KT 4SM BR OVC007
     FM171500 15010KT P6SM OVC015=



    US Dept of Commerce
    National Oceanic and Atmospheric Administration
    National Weather Service
    1325 East West Highway
    Silver Spring, MD 20910
    Page Author: NWS Internet Services Team
Disclaimer
Information Quality
Credits
Glossary
Privacy Policy
Freedom of Information Act (FOIA)
About Us
Career Opportunities